Terminal Aerodrome Forecast
Issued by NWS

Home | Current Version | Previous Version | Text Only | Print | Product List | Glossary On
Versions: 1 2 3 4 5 6 7 8 9 10 11 12 13 14 15 16 17 18 19 20 21 22 23 24
274
FTAK31 PAFA 051123
TAFABT
TAF
PABT 051123Z 0512/0612 33003KT P6SM FEW050
     FM052200 VRB05KT P6SM -SHRA VCTS BKN035CB OVC060
     FM060400 09008KT P6SM -SHRA BKN050 OVC100
     FM060900 04004KT P6SM BKN250=

USA.gov is the U.S. government's official web portal to all federal, state and local government web resources and services.